Time;durP1;ratioP1;P1;durP2;ratioP2;P2;SDS_P1;SDS_P2;PMS_P1;PMS_P2;Temp;Humidity;BMP_temperature;BMP_pressure;BME280_temperature;BME280_humidity;BME280_pressure;Samples;Min_cycle;Max_cycle;Signal;HPM_P1;HPM_P2
2023/09/02 00:01:49;;;;;;;32.97;14.85;;;16.60;99.90;;;;;;5039032;28;20021;-77
2023/09/02 00:04:15;;;;;;;31.63;14.80;;;15.90;99.90;;;;;;5058390;28;20025;-78
2023/09/02 00:06:41;;;;;;;34.00;14.90;;;15.80;99.90;;;;;;5039987;28;20399;-78
2023/09/02 00:09:06;;;;;;;34.45;14.90;;;15.80;99.90;;;;;;5039245;28;20032;-79
2023/09/02 00:11:32;;;;;;;32.10;15.40;;;15.70;99.90;;;;;;5057284;28;20025;-77
2023/09/02 00:13:58;;;;;;;30.52;14.50;;;15.80;99.90;;;;;;5038868;28;20025;-78
2023/09/02 00:16:23;;;;;;;35.50;15.15;;;15.70;99.90;;;;;;5038889;28;20431;-78
2023/09/02 00:18:49;;;;;;;33.53;15.60;;;15.60;99.90;;;;;;5057026;28;20067;-78
2023/09/02 00:21:14;;;;;;;31.13;14.60;;;15.60;99.90;;;;;;5039103;28;20017;-78
2023/09/02 00:23:45;;;;;;;30.95;14.25;;;15.60;99.90;;;;;;5039420;28;20448;-77
2023/09/02 00:26:11;;;;;;;30.35;13.43;;;15.50;99.90;;;;;;5056911;28;20028;-78
2023/09/02 00:28:37;;;;;;;34.03;14.68;;;15.50;99.90;;;;;;5056881;28;20484;-77
2023/09/02 00:31:02;;;;;;;31.50;14.57;;;15.40;99.90;;;;;;5056687;28;20035;-78
2023/09/02 00:33:28;;;;;;;31.27;14.73;;;15.80;99.90;;;;;;5056895;28;20090;-79
2023/09/02 00:35:54;;;;;;;27.23;14.15;;;15.40;99.90;;;;;;5056200;28;20025;-79
2023/09/02 00:38:19;;;;;;;32.25;15.32;;;15.30;99.90;;;;;;5056543;28;20032;-78
2023/09/02 00:40:54;;;;;;;29.25;14.10;;;15.30;99.90;;;;;;5038528;28;20024;-79
2023/09/02 00:43:19;;;;;;;31.48;14.55;;;15.30;99.90;;;;;;5038987;28;20021;-79
2023/09/02 00:45:45;;;;;;;34.80;14.75;;;15.20;99.90;;;;;;5038248;28;20039;-78
2023/09/02 00:48:11;;;;;;;29.83;15.13;;;15.20;99.90;;;;;;5056348;28;20021;-78
2023/09/02 00:50:37;;;;;;;34.40;13.98;;;15.20;99.90;;;;;;5038359;28;20021;-78
2023/09/02 00:53:03;;;;;;;31.65;15.13;;;15.10;99.90;;;;;;5038439;28;20369;-78
2023/09/02 00:55:29;;;;;;;36.80;13.75;;;15.10;99.90;;;;;;5056340;28;20476;-77
2023/09/02 00:57:56;;;;;;;34.50;14.32;;;15.00;99.90;;;;;;5038362;28;20480;-79
2023/09/02 01:00:22;;;;;;;34.05;15.10;;;15.00;99.90;;;;;;5038198;28;20025;-78
2023/09/02 01:02:49;;;;;;;32.30;14.63;;;14.90;99.90;;;;;;5038742;28;20385;-79
2023/09/02 01:05:15;;;;;;;31.67;14.98;;;15.00;99.90;;;;;;5038126;28;20017;-78
2023/09/02 01:07:43;;;;;;;37.28;15.98;;;15.00;99.90;;;;;;5056332;28;20017;-78
2023/09/02 01:10:09;;;;;;;35.77;14.90;;;15.00;99.90;;;;;;5038270;28;20097;-78
2023/09/02 01:12:34;;;;;;;38.58;16.83;;;14.90;99.90;;;;;;5056152;28;20082;-79
2023/09/02 01:15:00;;;;;;;39.95;15.13;;;14.90;99.90;;;;;;5038358;28;20021;-79
2023/09/02 01:17:26;;;;;;;34.60;16.58;;;16.20;99.90;;;;;;5038137;28;20395;-78
2023/09/02 01:19:53;;;;;;;34.45;15.07;;;15.00;99.90;;;;;;5055741;28;20024;-79
2023/09/02 01:22:50;;;;;;;33.97;15.48;;;15.00;99.90;;;;;;5055545;28;20072;-77
2023/09/02 01:25:38;;;;;;;35.70;16.43;;;14.90;99.90;;;;;;5038339;28;20376;-79
2023/09/02 01:28:18;;;;;;;29.38;14.63;;;14.90;99.90;;;;;;5038314;28;20063;-79
2023/09/02 01:30:48;;;;;;;34.45;14.73;;;14.90;99.90;;;;;;5038094;28;20059;-78
2023/09/02 01:33:16;;;;;;;74.30;15.75;;;14.90;99.90;;;;;;5038085;28;20021;-79
2023/09/02 01:35:43;;;;;;;33.53;14.80;;;14.90;99.90;;;;;;5038787;28;20032;-79
2023/09/02 01:38:10;;;;;;;32.53;13.80;;;14.80;99.90;;;;;;5039634;28;20079;-79
2023/09/02 01:40:36;;;;;;;34.92;15.75;;;14.80;99.90;;;;;;5056758;28;20016;-79
2023/09/02 01:43:04;;;;;;;32.58;14.90;;;14.80;99.90;;;;;;5056913;28;20048;-77
2023/09/02 01:45:34;;;;;;;31.58;13.35;;;14.80;99.90;;;;;;5040964;28;20024;-79
2023/09/02 01:48:01;;;;;;;37.53;15.40;;;14.80;99.90;;;;;;5058882;28;20036;-79
2023/09/02 01:50:29;;;;;;;31.20;14.25;;;14.70;99.90;;;;;;5059084;28;20368;-79
2023/09/02 01:52:56;;;;;;;31.73;14.55;;;14.70;99.90;;;;;;5057238;28;20020;-77
2023/09/02 01:55:22;;;;;;;30.65;13.98;;;14.70;99.90;;;;;;5057648;28;20035;-79
2023/09/02 01:57:49;;;;;;;34.10;15.30;;;14.70;99.90;;;;;;5075945;28;20023;-79
2023/09/02 02:00:15;;;;;;;32.90;14.82;;;14.70;99.90;;;;;;5074892;28;20020;-76
2023/09/02 02:02:42;;;;;;;34.25;15.10;;;14.70;99.90;;;;;;5057193;28;20035;-79
2023/09/02 02:05:12;;;;;;;28.65;13.52;;;14.70;99.90;;;;;;5058126;28;20028;-78
2023/09/02 02:07:41;;;;;;;32.92;13.20;;;14.70;99.90;;;;;;5076378;28;20498;-79
2023/09/02 02:10:15;;;;;;;60.53;12.63;;;14.70;99.90;;;;;;5076550;28;20024;-76
2023/09/02 02:12:42;;;;;;;41.90;14.35;;;14.70;99.90;;;;;;5057199;28;20032;-78
2023/09/02 02:15:11;;;;;;;33.50;14.18;;;15.80;99.90;;;;;;5057134;28;20052;-78
2023/09/02 02:17:41;;;;;;;27.08;12.50;;;14.70;99.90;;;;;;5075231;28;20028;-76
2023/09/02 02:20:11;;;;;;;29.10;12.05;;;14.70;99.90;;;;;;5058075;28;20447;-76
2023/09/02 02:22:36;;;;;;;30.42;13.65;;;14.70;99.90;;;;;;5058479;28;20514;-78
2023/09/02 02:25:02;;;;;;;27.55;12.85;;;14.50;99.90;;;;;;5075807;28;20033;-79
2023/09/02 02:27:28;;;;;;;28.40;12.77;;;14.60;99.90;;;;;;5058369;28;20050;-79
2023/09/02 02:29:53;;;;;;;26.38;12.48;;;14.60;99.90;;;;;;5075901;28;20024;-79
2023/09/02 02:32:20;;;;;;;28.35;11.57;;;17.10;99.90;;;;;;5056448;28;20181;-79
2023/09/02 02:34:45;;;;;;;28.77;11.02;;;14.80;99.90;;;;;;5059186;28;20021;-78
2023/09/02 02:37:11;;;;;;;25.45;11.55;;;15.10;99.90;;;;;;5075708;28;20027;-78
2023/09/02 02:39:36;;;;;;;31.63;12.48;;;14.80;99.90;;;;;;5075591;28;20024;-77
2023/09/02 02:42:02;;;;;;;25.05;11.82;;;14.90;99.90;;;;;;5076280;28;20387;-77
2023/09/02 02:44:31;;;;;;;28.08;12.15;;;14.90;99.90;;;;;;5075664;28;20491;-79
2023/09/02 02:46:56;;;;;;;;;;;14.90;99.90;;;;;;5058498;28;20021;-78
2023/09/02 02:49:22;;;;;;;29.63;13.07;;;15.00;99.90;;;;;;5058697;28;19911;-79
2023/09/02 02:51:47;;;;;;;37.63;12.95;;;15.00;99.90;;;;;;5076439;28;20024;-79
2023/09/02 02:54:14;;;;;;;30.38;12.48;;;15.00;99.90;;;;;;5058200;28;20043;-79
2023/09/02 02:56:40;;;;;;;30.48;11.85;;;15.00;99.90;;;;;;5058101;28;20103;-79
2023/09/02 02:59:05;;;;;;;40.83;13.25;;;15.10;99.90;;;;;;5075854;28;20052;-77
2023/09/02 03:01:31;;;;;;;72.93;14.80;;;15.10;99.90;;;;;;5075924;28;20025;-77
2023/09/02 03:03:56;;;;;;;37.72;14.02;;;15.20;99.90;;;;;;5074885;28;20025;-79
2023/09/02 03:06:22;;;;;;;38.83;14.75;;;15.20;99.90;;;;;;5074296;28;20029;-78
2023/09/02 03:08:47;;;;;;;42.70;15.30;;;15.20;99.90;;;;;;5074682;28;20032;-77
2023/09/02 03:11:13;;;;;;;36.97;14.40;;;15.20;99.90;;;;;;5056187;28;20050;-79
2023/09/02 03:13:39;;;;;;;45.53;14.73;;;16.70;99.90;;;;;;5074446;28;20029;-78
2023/09/02 03:16:05;;;;;;;110.82;17.23;;;15.30;99.90;;;;;;5056491;28;20053;-77
2023/09/02 03:18:31;;;;;;;51.47;17.75;;;15.40;99.90;;;;;;5056226;28;20031;-78
2023/09/02 03:21:07;;;;;;;64.70;18.13;;;15.30;99.90;;;;;;5056544;28;20400;-79
2023/09/02 03:23:36;;;;;;;68.05;17.63;;;15.30;99.90;;;;;;5056563;28;20107;-78
2023/09/02 03:26:12;;;;;;;49.78;15.20;;;15.40;99.90;;;;;;5074130;28;20096;-78
2023/09/02 03:28:37;;;;;;;72.82;15.57;;;15.40;99.90;;;;;;5056266;28;20453;-78
2023/09/02 03:31:10;;;;;;;120.80;15.20;;;15.40;99.90;;;;;;5073908;28;20017;-78
2023/09/02 03:33:37;;;;;;;102.38;18.13;;;15.50;99.90;;;;;;5074312;28;20029;-78
2023/09/02 03:36:03;;;;;;;131.25;18.30;;;15.40;99.90;;;;;;5055977;28;20032;-79
2023/09/02 03:38:29;;;;;;;173.63;18.90;;;15.50;99.90;;;;;;5056011;28;20052;-78
2023/09/02 03:40:55;;;;;;;201.75;18.15;;;15.50;99.90;;;;;;5074000;28;20032;-78
2023/09/02 03:43:21;;;;;;;177.43;16.23;;;15.90;99.90;;;;;;5056068;28;20056;-78
2023/09/02 03:45:49;;;;;;;181.55;16.52;;;15.50;99.90;;;;;;5060580;28;20025;-79
2023/09/02 03:48:19;;;;;;;143.15;16.77;;;15.50;99.90;;;;;;5061121;28;20387;-78
2023/09/02 03:51:03;;;;;;;230.50;15.13;;;16.40;99.90;;;;;;5061413;28;20017;-79
2023/09/02 03:53:30;;;;;;;183.07;15.07;;;15.50;99.90;;;;;;5079143;28;20028;-78
2023/09/02 03:55:55;;;;;;;201.55;15.52;;;15.50;99.90;;;;;;5059981;28;20017;-78
2023/09/02 03:58:21;;;;;;;133.07;15.10;;;15.50;99.90;;;;;;5059657;28;20017;-77
2023/09/02 04:00:46;;;;;;;92.40;11.85;;;15.50;99.90;;;;;;5077794;28;20020;-77
2023/09/02 04:03:14;;;;;;;80.15;11.82;;;15.50;99.90;;;;;;5059263;28;20024;-78
2023/09/02 04:05:40;;;;;;;182.65;13.13;;;15.60;99.90;;;;;;5059414;28;20025;-78
2023/09/02 04:08:05;;;;;;;132.18;12.65;;;16.10;99.90;;;;;;5077536;28;20035;-78
2023/09/02 04:10:31;;;;;;;68.85;10.65;;;15.70;99.90;;;;;;5059206;28;20047;-78
2023/09/02 04:12:57;;;;;;;98.97;10.88;;;;;;;;;;5077036;28;20039;-78
2023/09/02 04:15:22;;;;;;;117.75;10.40;;;15.40;99.90;;;;;;5059098;28;20051;-78
2023/09/02 04:17:48;;;;;;;56.22;9.63;;;15.90;99.90;;;;;;5077373;28;20491;-78
2023/09/02 04:20:13;;;;;;;55.72;9.77;;;17.30;99.90;;;;;;5059289;28;20433;-79
2023/09/02 04:22:39;;;;;;;73.88;11.00;;;15.40;99.90;;;;;;5077479;28;20538;-79
2023/09/02 04:25:10;;;;;;;51.38;9.57;;;15.40;99.90;;;;;;5058976;28;20032;-78
2023/09/02 04:27:35;;;;;;;54.05;10.77;;;15.40;99.90;;;;;;5059312;28;20158;-78
2023/09/02 04:30:01;;;;;;;98.63;11.45;;;15.30;99.90;;;;;;5076892;28;20491;-78
2023/09/02 04:32:26;;;;;;;97.88;13.02;;;15.30;99.90;;;;;;5058644;28;20032;-78
2023/09/02 04:34:52;;;;;;;94.88;12.40;;;15.30;99.90;;;;;;5076859;28;20016;-78
2023/09/02 04:37:18;;;;;;;48.35;10.25;;;15.30;99.90;;;;;;5077272;28;20082;-78
2023/09/02 04:39:44;;;;;;;48.22;10.43;;;15.30;99.90;;;;;;5076821;28;20527;-78
2023/09/02 04:42:10;;;;;;;78.10;11.02;;;15.20;99.90;;;;;;5077134;28;20055;-78
2023/09/02 04:44:35;;;;;;;115.57;10.70;;;15.30;99.90;;;;;;5058903;28;20495;-78
2023/09/02 04:47:01;;;;;;;95.95;10.88;;;15.30;99.90;;;;;;5077071;28;20035;-78
2023/09/02 04:49:27;;;;;;;56.20;10.18;;;15.30;99.90;;;;;;5059163;28;20020;-79
2023/09/02 04:51:53;;;;;;;41.80;9.82;;;15.30;99.90;;;;;;5058477;28;20028;-78
2023/09/02 04:54:18;;;;;;;29.42;9.75;;;15.40;99.90;;;;;;5058642;28;20012;-78
2023/09/02 04:56:44;;;;;;;33.03;10.07;;;15.30;99.90;;;;;;5075255;28;20044;-78
2023/09/02 04:59:09;;;;;;;80.43;10.45;;;15.30;99.90;;;;;;5076080;28;20055;-78
2023/09/02 05:01:35;;;;;;;76.70;9.80;;;15.30;99.90;;;;;;5058143;28;20013;-78
2023/09/02 05:04:01;;;;;;;119.68;10.80;;;15.40;99.90;;;;;;5058131;28;20023;-77
2023/09/02 05:06:26;;;;;;;58.05;8.85;;;15.30;99.90;;;;;;5075773;28;20114;-79
2023/09/02 05:08:55;;;;;;;46.58;9.50;;;15.30;99.90;;;;;;5057864;28;20020;-78
2023/09/02 05:11:21;;;;;;;;;;;15.30;99.90;;;;;;5058177;28;20391;-79
2023/09/02 05:13:48;;;;;;;99.90;10.00;;;15.30;99.90;;;;;;5057921;28;19905;-79
2023/09/02 05:16:14;;;;;;;97.90;11.70;;;15.30;99.90;;;;;;5075448;28;20503;-78
2023/09/02 05:18:39;;;;;;;66.70;9.05;;;15.30;99.90;;;;;;5076293;28;20051;-78
2023/09/02 05:21:05;;;;;;;59.63;9.05;;;15.60;99.90;;;;;;5076035;28;20075;-78
2023/09/02 05:23:32;;;;;;;32.03;9.68;;;16.50;99.90;;;;;;5057517;28;20067;-78
2023/09/02 05:25:57;;;;;;;31.48;9.63;;;15.40;99.90;;;;;;5075758;28;20021;-78
2023/09/02 05:28:25;;;;;;;50.05;10.68;;;15.40;99.90;;;;;;5075360;28;20029;-78
2023/09/02 05:30:51;;;;;;;112.45;11.10;;;15.40;99.90;;;;;;5075772;28;20024;-77
2023/09/02 05:33:17;;;;;;;39.10;11.38;;;15.40;99.90;;;;;;5057590;28;20033;-78
2023/09/02 05:35:44;;;;;;;47.28;11.23;;;15.40;99.90;;;;;;5075917;28;20032;-78
2023/09/02 05:38:09;;;;;;;51.45;11.30;;;15.50;99.90;;;;;;5057628;28;20084;-78
2023/09/02 05:40:38;;;;;;;56.67;10.88;;;15.50;99.90;;;;;;5057929;28;20052;-78
2023/09/02 05:43:03;;;;;;;32.40;10.80;;;16.20;99.90;;;;;;5058536;28;20024;-78
2023/09/02 05:45:29;;;;;;;39.40;10.43;;;16.10;99.90;;;;;;5057988;28;20479;-78
2023/09/02 05:47:54;;;;;;;94.05;11.55;;;15.60;99.90;;;;;;5070777;28;20392;-78
2023/09/02 05:50:20;;;;;;;33.22;11.88;;;15.60;99.90;;;;;;5055946;28;20045;-78
2023/09/02 05:52:46;;;;;;;46.67;12.00;;;15.70;99.90;;;;;;5038168;28;20017;-78
2023/09/02 05:55:11;;;;;;;56.90;11.70;;;15.70;99.90;;;;;;5037736;28;20025;-78
2023/09/02 05:57:37;;;;;;;123.88;11.63;;;15.70;99.90;;;;;;5037936;28;20100;-78
2023/09/02 06:00:03;;;;;;;120.13;12.80;;;15.80;99.90;;;;;;5037878;28;20499;-78
2023/09/02 06:02:33;;;;;;;41.90;10.48;;;15.80;99.90;;;;;;5054181;28;20043;-77
2023/09/02 06:04:58;;;;;;;35.55;10.95;;;16.60;99.90;;;;;;5053769;28;20021;-77
2023/09/02 06:07:24;;;;;;;53.28;10.57;;;15.90;99.90;;;;;;5053549;28;20052;-78
2023/09/02 06:09:51;;;;;;;48.25;11.45;;;16.00;99.90;;;;;;5055872;28;20017;-79
2023/09/02 06:12:16;;;;;;;65.38;10.98;;;16.00;99.90;;;;;;5038525;28;20552;-80
2023/09/02 06:14:42;;;;;;;50.10;10.38;;;16.10;99.90;;;;;;5038259;28;20053;-80
2023/09/02 06:17:08;;;;;;;50.28;11.13;;;16.00;99.90;;;;;;5039155;28;20040;-83
2023/09/02 06:19:34;;;;;;;44.70;10.93;;;16.30;99.90;;;;;;5041288;28;20074;-83
2023/09/02 06:22:00;;;;;;;33.38;11.93;;;16.20;99.90;;;;;;5041526;28;20067;-80
2023/09/02 06:24:27;;;;;;;39.75;10.00;;;16.40;99.90;;;;;;5039140;28;20028;-79
2023/09/02 06:26:52;;;;;;;83.90;10.82;;;16.20;99.90;;;;;;5057143;28;20067;-79
2023/09/02 06:29:18;;;;;;;39.20;10.00;;;16.30;99.90;;;;;;5056852;28;20025;-79
2023/09/02 06:31:45;;;;;;;47.97;9.10;;;16.30;99.90;;;;;;5038614;28;20029;-80
2023/09/02 06:34:11;;;;;;;32.47;10.23;;;16.30;99.90;;;;;;5056727;28;20021;-80
2023/09/02 06:36:36;;;;;;;31.00;8.88;;;16.30;99.90;;;;;;5056312;28;20037;-80
2023/09/02 06:39:03;;;;;;;31.88;10.02;;;16.30;99.90;;;;;;5039047;28;20028;-79
2023/09/02 06:41:29;;;;;;;27.70;9.38;;;16.30;99.90;;;;;;5039054;28;20025;-78
2023/09/02 06:43:54;;;;;;;23.48;8.60;;;16.30;99.90;;;;;;5056484;28;20032;-79
2023/09/02 06:46:21;;;;;;;21.85;8.93;;;16.40;99.90;;;;;;5056989;28;20028;-79
2023/09/02 06:48:47;;;;;;;21.65;8.52;;;16.40;99.90;;;;;;5057251;28;20025;-79
2023/09/02 06:51:14;;;;;;;29.88;8.30;;;16.50;99.90;;;;;;5057753;28;20048;-79
2023/09/02 06:53:40;;;;;;;16.98;8.40;;;16.50;99.90;;;;;;5038646;28;20439;-80
2023/09/02 06:56:12;;;;;;;16.42;7.28;;;16.60;99.90;;;;;;5039561;28;20418;-80
2023/09/02 06:58:42;;;;;;;32.30;7.85;;;16.70;99.90;;;;;;5039458;28;20223;-79
2023/09/02 07:01:24;;;;;;;15.95;7.05;;;16.70;99.90;;;;;;5056994;28;20060;-80
2023/09/02 07:03:50;;;;;;;12.18;6.22;;;16.70;99.90;;;;;;5039589;28;20021;-79
2023/09/02 07:06:16;;;;;;;13.40;6.88;;;16.70;99.90;;;;;;5056500;28;20496;-79
2023/09/02 07:08:43;;;;;;;18.15;7.50;;;16.70;99.90;;;;;;5038987;28;20025;-78
2023/09/02 07:11:11;;;;;;;18.50;8.10;;;16.80;99.90;;;;;;5056751;28;20025;-79
2023/09/02 07:13:38;;;;;;;18.13;8.30;;;16.70;99.90;;;;;;5038677;28;20047;-80
2023/09/02 07:16:05;;;;;;;17.95;6.95;;;16.90;99.90;;;;;;5056529;28;20040;-79
2023/09/02 07:18:32;;;;;;;20.58;8.40;;;16.90;99.90;;;;;;5058160;28;20028;-79
2023/09/02 07:21:03;;;;;;;19.02;8.25;;;17.00;99.90;;;;;;5060969;28;20027;-79
2023/09/02 07:23:29;;;;;;;18.17;7.18;;;17.10;99.90;;;;;;5042981;28;20095;-78
2023/09/02 07:26:00;;;;;;;16.13;7.28;;;17.10;99.90;;;;;;5042419;28;20025;-79
2023/09/02 07:28:26;;;;;;;14.73;7.88;;;17.10;99.90;;;;;;5059907;28;20025;-79
2023/09/02 07:30:52;;;;;;;15.50;7.43;;;17.10;99.90;;;;;;5060388;28;20021;-77
2023/09/02 07:33:17;;;;;;;16.25;7.72;;;17.10;99.90;;;;;;5059458;28;20481;-80
2023/09/02 07:35:43;;;;;;;16.77;8.13;;;17.10;99.90;;;;;;5041883;28;20072;-78
2023/09/02 07:38:09;;;;;;;18.13;9.07;;;17.20;99.90;;;;;;5059773;28;20021;-79
2023/09/02 07:40:35;;;;;;;18.88;8.13;;;17.20;99.90;;;;;;5059233;28;20025;-77
2023/09/02 07:43:01;;;;;;;17.10;8.82;;;17.30;99.90;;;;;;5060617;28;20056;-79
2023/09/02 07:45:27;;;;;;;19.35;8.50;;;17.50;99.90;;;;;;5060335;28;20025;-79
2023/09/02 07:47:54;;;;;;;19.05;9.23;;;17.50;99.90;;;;;;5042420;28;20029;-79
2023/09/02 07:50:20;;;;;;;19.58;9.68;;;17.50;99.90;;;;;;5042754;28;20507;-80
2023/09/02 07:52:45;;;;;;;17.80;8.45;;;17.60;99.90;;;;;;5042694;28;20050;-79
2023/09/02 07:55:11;;;;;;;18.40;8.75;;;17.50;99.90;;;;;;5043671;28;20024;-79
2023/09/02 07:57:36;;;;;;;17.77;7.88;;;17.50;99.90;;;;;;5063098;28;20468;-80
2023/09/02 08:00:02;;;;;;;18.85;9.70;;;17.60;99.90;;;;;;5062725;28;20064;-80
2023/09/02 08:02:28;;;;;;;18.02;8.82;;;17.60;99.90;;;;;;5080634;28;20040;-78
2023/09/02 08:04:53;;;;;;;20.02;10.05;;;17.60;99.90;;;;;;5079689;28;20036;-79
2023/09/02 08:07:19;;;;;;;18.05;8.63;;;17.90;99.90;;;;;;5080243;28;20032;-79
2023/09/02 08:09:47;;;;;;;19.58;10.35;;;18.00;99.90;;;;;;5061914;28;20020;-79
2023/09/02 08:12:13;;;;;;;19.05;8.20;;;18.10;99.90;;;;;;5061916;28;20024;-80
2023/09/02 08:14:38;;;;;;;18.58;8.65;;;18.30;99.90;;;;;;5079073;28;20024;-79
2023/09/02 08:17:04;;;;;;;21.98;9.90;;;18.30;99.90;;;;;;5061342;28;20025;-80
2023/09/02 08:19:32;;;;;;;18.05;8.50;;;18.40;99.90;;;;;;5079275;28;20021;-78
2023/09/02 08:21:58;;;;;;;17.98;9.43;;;18.60;99.90;;;;;;5061928;28;20033;-79
2023/09/02 08:24:23;;;;;;;19.58;9.10;;;18.60;99.90;;;;;;5078624;28;20028;-79
2023/09/02 08:26:49;;;;;;;17.75;8.70;;;18.80;99.90;;;;;;5078700;28;20565;-79
2023/09/02 08:29:15;;;;;;;20.67;10.07;;;18.80;99.90;;;;;;5078692;28;20020;-80
2023/09/02 08:31:41;;;;;;;21.63;10.57;;;18.90;99.90;;;;;;5060179;28;20044;-79
2023/09/02 08:34:06;;;;;;;20.80;9.55;;;18.90;99.90;;;;;;5078916;28;20383;-80
2023/09/02 08:36:32;;;;;;;21.98;10.48;;;18.90;99.90;;;;;;5078530;28;20029;-79
2023/09/02 08:38:57;;;;;;;17.95;9.23;;;18.90;99.90;;;;;;5079398;28;20060;-80
2023/09/02 08:41:26;;;;;;;21.30;9.43;;;19.00;99.90;;;;;;5079761;28;20028;-78
2023/09/02 08:43:53;;;;;;;19.45;9.57;;;19.10;99.90;;;;;;5061312;28;20466;-78
2023/09/02 08:46:21;;;;;;;19.02;9.10;;;19.50;99.90;;;;;;5078547;28;20074;-80
2023/09/02 08:48:48;;;;;;;16.17;8.93;;;19.10;99.90;;;;;;5078707;28;20084;-79
2023/09/02 08:51:14;;;;;;;20.67;10.25;;;19.10;99.90;;;;;;5059807;28;20067;-78
2023/09/02 08:53:41;;;;;;;19.45;9.73;;;19.10;99.90;;;;;;5061085;28;20032;-80
2023/09/02 08:56:08;;;;;;;17.55;9.45;;;19.00;99.90;;;;;;5077931;28;20074;-81
2023/09/02 08:58:34;;;;;;;18.65;9.35;;;19.00;99.90;;;;;;5077589;28;20032;-78
2023/09/02 09:01:01;;;;;;;17.02;9.23;;;19.00;99.90;;;;;;5060023;28;20031;-77
2023/09/02 09:03:29;;;;;;;16.60;8.77;;;19.00;99.90;;;;;;5078261;28;20021;-80
2023/09/02 09:05:57;;;;;;;20.27;9.05;;;19.10;99.90;;;;;;5077503;28;20391;-80
2023/09/02 09:08:24;;;;;;;17.48;8.85;;;19.10;99.90;;;;;;5077757;28;20013;-78
2023/09/02 09:10:50;;;;;;;19.63;9.02;;;19.10;99.90;;;;;;5059220;28;20060;-79
2023/09/02 09:13:17;;;;;;;16.40;8.10;;;19.40;99.90;;;;;;5078897;28;20024;-80
2023/09/02 09:15:45;;;;;;;17.90;9.00;;;19.20;99.90;;;;;;5078074;28;20027;-78
2023/09/02 09:18:13;;;;;;;17.73;8.95;;;19.20;99.90;;;;;;5059825;28;20025;-80
2023/09/02 09:20:39;;;;;;;17.15;8.50;;;19.20;99.90;;;;;;5059954;28;20016;-79
2023/09/02 09:23:08;;;;;;;17.77;9.15;;;19.50;99.90;;;;;;5060019;28;20532;-78
2023/09/02 09:25:35;;;;;;;19.05;9.18;;;19.20;99.90;;;;;;5077865;28;20429;-78
2023/09/02 09:28:12;;;;;;;18.92;9.88;;;19.30;99.90;;;;;;5060642;28;20017;-80
2023/09/02 09:30:38;;;;;;;19.00;9.70;;;19.40;99.90;;;;;;5060810;28;20064;-80
2023/09/02 09:33:05;;;;;;;16.85;9.07;;;19.40;99.90;;;;;;5078831;28;20024;-79
2023/09/02 09:35:32;;;;;;;16.75;9.00;;;19.70;99.90;;;;;;5077943;28;20021;-80
2023/09/02 09:37:58;;;;;;;21.70;10.13;;;19.50;99.90;;;;;;5078900;28;20025;-81
2023/09/02 09:40:35;;;;;;;16.83;8.52;;;19.40;99.90;;;;;;5077723;28;20021;-80
2023/09/02 09:43:12;;;;;;;17.38;9.05;;;19.50;99.90;;;;;;5076318;28;20029;-78
2023/09/02 09:45:51;;;;;;;15.93;8.90;;;19.40;99.90;;;;;;5074509;28;20033;-74
2023/09/02 09:48:16;;;;;;;16.63;8.50;;;19.30;99.90;;;;;;5058517;28;20032;-76
2023/09/02 09:50:42;;;;;;;21.42;9.40;;;19.30;99.90;;;;;;5056907;28;20021;-77
2023/09/02 09:53:09;;;;;;;17.90;9.02;;;19.30;99.90;;;;;;5075500;28;20087;-76
2023/09/02 09:55:36;;;;;;;17.67;8.88;;;19.20;99.90;;;;;;5057100;28;20480;-76
2023/09/02 09:58:02;;;;;;;19.98;9.93;;;19.20;99.90;;;;;;5056763;28;20468;-77
2023/09/02 10:00:29;;;;;;;20.45;10.48;;;19.20;99.90;;;;;;5074695;28;20025;-77
2023/09/02 10:02:58;;;;;;;20.52;9.15;;;19.30;99.90;;;;;;5056662;28;20185;-77
2023/09/02 10:05:27;;;;;;;18.85;9.85;;;19.40;99.90;;;;;;5056484;28;20024;-77
2023/09/02 10:08:00;;;;;;;19.15;9.43;;;19.50;99.90;;;;;;5056014;28;20036;-76
2023/09/02 10:10:37;;;;;;;16.95;8.48;;;19.60;99.90;;;;;;5073746;28;20032;-76
2023/09/02 10:13:03;;;;;;;19.95;9.57;;;19.60;99.90;;;;;;5055885;28;20017;-78
2023/09/02 10:15:30;;;;;;;18.42;8.70;;;19.60;99.90;;;;;;5056270;28;20548;-76
2023/09/02 10:18:03;;;;;;;21.85;9.95;;;19.50;99.90;;;;;;5073676;28;20468;-76
2023/09/02 10:20:31;;;;;;;21.77;10.43;;;16.00;99.90;;;;;;5055659;28;20079;-76
2023/09/02 10:23:06;;;;;;;18.08;8.85;;;19.40;99.90;;;;;;5056232;28;20021;-76
2023/09/02 10:25:54;;;;;;;16.30;8.43;;;19.30;99.90;;;;;;5056766;28;20024;-77
2023/09/02 10:28:38;;;;;;;23.15;9.57;;;19.40;99.90;;;;;;5075538;28;20028;-77
2023/09/02 10:31:16;;;;;;;19.45;10.02;;;19.40;99.90;;;;;;5074479;28;20028;-78
2023/09/02 10:34:05;;;;;;;19.70;9.05;;;19.40;99.90;;;;;;5075259;28;20032;-79
2023/09/02 10:36:36;;;;;;;21.92;10.88;;;19.40;99.90;;;;;;5074341;28;20082;-78
2023/09/02 10:39:03;;;;;;;20.10;9.88;;;19.50;99.90;;;;;;5075266;28;20023;-78
2023/09/02 10:41:30;;;;;;;21.55;10.52;;;19.70;99.90;;;;;;5058681;28;20024;-78
2023/09/02 10:43:56;;;;;;;21.73;10.63;;;19.70;99.90;;;;;;5076972;28;20029;-79
2023/09/02 10:46:23;;;;;;;20.35;9.60;;;19.80;99.90;;;;;;5076149;28;20024;-79
2023/09/02 10:48:49;;;;;;;21.50;10.77;;;20.10;99.90;;;;;;5074734;28;20023;-76
2023/09/02 10:51:15;;;;;;;18.42;8.90;;;20.20;99.90;;;;;;5056190;28;20436;-78
2023/09/02 10:53:57;;;;;;;24.08;11.05;;;20.40;99.90;;;;;;5075426;28;20051;-77
2023/09/02 10:56:28;;;;;;;22.70;10.45;;;20.40;99.90;;;;;;5061354;28;20531;-77
2023/09/02 10:58:55;;;;;;;21.95;10.43;;;20.50;99.90;;;;;;5079391;28;20047;-76
2023/09/02 11:01:20;;;;;;;28.85;11.55;;;20.50;99.90;;;;;;5078708;28;20025;-77
2023/09/02 11:03:48;;;;;;;26.33;12.07;;;20.50;99.90;;;;;;5078680;28;20028;-77
2023/09/02 11:06:17;;;;;;;22.63;11.70;;;20.50;99.90;;;;;;5062147;28;20042;-77
2023/09/02 11:08:51;;;;;;;25.65;11.10;;;20.50;99.90;;;;;;5062184;28;20435;-79
2023/09/02 11:11:18;;;;;;;22.23;10.82;;;20.50;99.90;;;;;;5061606;28;20073;-79
2023/09/02 11:14:08;;;;;;;21.10;10.50;;;20.60;99.90;;;;;;5061889;28;20064;-78
2023/09/02 11:16:34;;;;;;;21.08;10.00;;;20.70;99.90;;;;;;5079681;28;20082;-78
2023/09/02 11:19:00;;;;;;;17.52;9.02;;;21.00;99.90;;;;;;5079595;28;20020;-79
2023/09/02 11:21:39;;;;;;;21.05;10.52;;;21.10;99.90;;;;;;5080112;28;20031;-80
2023/09/02 11:24:19;;;;;;;22.65;10.75;;;21.10;99.90;;;;;;5080932;28;20044;-80
2023/09/02 11:26:58;;;;;;;20.25;10.00;;;21.10;99.90;;;;;;5080775;28;20027;-80
2023/09/02 11:29:26;;;;;;;20.63;10.30;;;21.00;99.90;;;;;;5080106;28;20058;-79
2023/09/02 11:32:03;;;;;;;20.67;9.50;;;21.00;99.90;;;;;;5079285;28;20032;-80
2023/09/02 11:34:30;;;;;;;19.95;9.18;;;21.10;99.90;;;;;;5062009;28;20139;-79
2023/09/02 11:36:57;;;;;;;20.80;11.02;;;21.20;99.90;;;;;;5062521;28;20068;-80
2023/09/02 11:39:31;;;;;;;19.67;10.20;;;21.20;99.90;;;;;;5062518;28;20029;-78
2023/09/02 11:42:07;;;;;;;19.17;9.48;;;21.40;99.90;;;;;;5060970;28;20020;-78
2023/09/02 11:44:33;;;;;;;19.52;10.00;;;21.50;99.90;;;;;;5079250;28;20032;-78
2023/09/02 11:47:01;;;;;;;21.40;10.05;;;21.70;99.90;;;;;;5060890;28;20021;-77
2023/09/02 11:49:27;;;;;;;18.58;9.77;;;21.60;99.90;;;;;;5078860;28;20480;-80
2023/09/02 11:51:53;;;;;;;21.15;9.80;;;21.80;99.90;;;;;;5061496;28;20025;-80
2023/09/02 11:54:18;;;;;;;19.80;9.68;;;21.80;99.90;;;;;;5060173;28;20491;-78
2023/09/02 11:57:02;;;;;;;18.92;9.77;;;21.70;99.90;;;;;;5077705;28;20078;-79
2023/09/02 11:59:28;;;;;;;16.45;9.18;;;21.50;99.90;;;;;;5079544;28;20024;-79
2023/09/02 12:02:12;;;;;;;15.65;9.52;;;21.50;99.90;;;;;;5061373;28;20020;-80
2023/09/02 12:04:39;;;;;;;15.55;8.20;;;21.50;99.90;;;;;;5061760;28;20032;-79
2023/09/02 12:07:06;;;;;;;14.68;8.35;;;21.70;99.90;;;;;;5061623;28;20047;-77
2023/09/02 12:09:32;;;;;;;16.83;8.30;;;21.70;99.90;;;;;;5078921;28;20115;-79
2023/09/02 12:11:58;;;;;;;11.75;6.82;;;22.00;99.90;;;;;;5079747;28;20027;-77
2023/09/02 12:14:26;;;;;;;13.35;7.30;;;22.20;99.90;;;;;;5060953;28;20105;-79
2023/09/02 12:16:52;;;;;;;13.60;7.07;;;22.40;99.90;;;;;;5060787;28;20017;-76
2023/09/02 12:19:18;;;;;;;12.30;6.63;;;22.70;99.90;;;;;;5062144;28;20544;-79
2023/09/02 12:21:44;;;;;;;14.13;6.97;;;23.10;99.90;;;;;;5079214;28;20106;-79
2023/09/02 12:24:10;;;;;;;12.57;6.78;;;23.40;99.90;;;;;;5061775;28;20105;-79
2023/09/02 12:26:49;;;;;;;12.55;6.85;;;23.60;99.90;;;;;;5080464;28;20025;-79
2023/09/02 12:29:18;;;;;;;12.73;6.80;;;23.70;99.90;;;;;;5079762;28;20116;-78
2023/09/02 12:32:00;;;;;;;9.05;5.75;;;23.70;99.90;;;;;;5078964;28;20434;-79
2023/09/02 12:34:33;;;;;;;12.23;6.25;;;23.90;99.90;;;;;;5078899;28;20472;-79